createdAt,value
2022-10-05T00:02:00.628Z,100.00
2022-10-05T00:05:14.380Z,100.00
2022-10-05T00:12:37.571Z,100.00
2022-10-05T00:15:52.568Z,100.00
2022-10-05T00:19:01.062Z,100.00
2022-10-05T00:22:15.571Z,100.00
2022-10-05T00:25:24.363Z,100.00
2022-10-05T00:28:41.565Z,100.00
2022-10-05T00:32:03.611Z,100.00
2022-10-05T00:35:05.882Z,100.00
2022-10-05T00:38:35.582Z,100.00
2022-10-05T00:46:06.638Z,100.00
2022-10-05T00:50:00.553Z,100.00
2022-10-05T00:57:33.588Z,100.00
2022-10-05T01:01:00.633Z,100.00
2022-10-05T01:04:21.559Z,100.00
2022-10-05T01:07:46.547Z,100.00
2022-10-05T01:11:22.570Z,100.00
2022-10-05T01:14:43.557Z,100.00
2022-10-05T01:18:03.014Z,100.00
2022-10-05T01:21:32.569Z,100.00
2022-10-05T01:25:20.987Z,100.00
2022-10-05T01:28:35.577Z,100.00
2022-10-05T01:39:46.569Z,100.00
2022-10-05T01:47:32.577Z,100.00
2022-10-05T01:50:56.112Z,100.00
2022-10-05T01:54:22.567Z,100.00
2022-10-05T01:57:59.589Z,100.00
2022-10-05T02:01:12.873Z,100.00
2022-10-05T02:05:04.913Z,100.00
2022-10-05T02:08:41.566Z,100.00
2022-10-05T02:12:21.561Z,100.00
2022-10-05T02:15:44.597Z,100.00
2022-10-05T02:19:04.562Z,100.00
2022-10-05T02:22:41.668Z,100.00
2022-10-05T02:25:59.554Z,100.00
2022-10-05T02:29:19.569Z,100.00
2022-10-05T02:32:49.511Z,100.00
2022-10-05T02:36:35.588Z,100.00
2022-10-05T02:43:49.582Z,100.00
2022-10-05T02:47:41.906Z,100.00
2022-10-05T02:51:08.568Z,100.00
2022-10-05T02:55:09.576Z,100.00
2022-10-05T02:58:28.713Z,100.00
2022-10-05T03:01:47.603Z,100.00
2022-10-05T03:05:17.559Z,100.00
2022-10-05T03:09:10.588Z,100.00
2022-10-05T03:12:37.556Z,100.00
2022-10-05T03:20:00.587Z,100.00
2022-10-05T03:23:44.560Z,100.00
2022-10-05T03:27:22.539Z,100.00
2022-10-05T03:30:48.635Z,100.00
2022-10-05T03:38:25.580Z,100.00
2022-10-05T03:41:51.576Z,100.00
2022-10-05T03:45:39.549Z,100.00
2022-10-05T03:49:12.579Z,100.00
2022-10-05T03:52:38.193Z,100.00
2022-10-05T03:56:13.565Z,100.00
2022-10-05T04:03:39.565Z,100.00
2022-10-05T04:06:50.703Z,100.00
2022-10-05T04:10:01.570Z,100.00
2022-10-05T04:13:21.557Z,100.00
2022-10-05T04:16:44.942Z,100.00
2022-10-05T04:20:05.591Z,100.00
2022-10-05T04:23:57.581Z,100.00
2022-10-05T04:27:23.956Z,100.00
2022-10-05T04:30:32.546Z,100.00
2022-10-05T04:34:03.557Z,100.00
2022-10-05T04:37:21.665Z,100.00
2022-10-05T04:40:33.588Z,100.00
2022-10-05T04:44:29.553Z,100.00
2022-10-05T04:47:41.000Z,100.00
2022-10-05T04:51:23.584Z,100.00
2022-10-05T04:55:16.552Z,100.00
2022-10-05T04:58:31.115Z,100.00
2022-10-05T05:02:02.605Z,100.00
2022-10-05T05:06:11.956Z,100.00
2022-10-05T05:09:47.551Z,100.00
2022-10-05T05:13:54.575Z,100.00
2022-10-05T05:17:14.946Z,100.00
2022-10-05T05:20:47.588Z,100.00
2022-10-05T05:24:03.956Z,100.00
2022-10-05T05:27:40.585Z,100.00
2022-10-05T05:31:01.571Z,100.00
2022-10-05T05:34:34.833Z,100.00
2022-10-05T05:37:59.545Z,100.00
2022-10-05T05:41:23.563Z,100.00
2022-10-05T05:44:43.282Z,100.00
2022-10-05T05:48:00.560Z,100.00
2022-10-05T05:51:17.573Z,100.00
2022-10-05T05:54:51.234Z,100.00
2022-10-05T05:58:29.566Z,100.00
2022-10-05T06:01:49.009Z,100.00
2022-10-05T06:05:09.576Z,100.00
2022-10-05T06:08:31.580Z,100.00
2022-10-05T06:11:51.783Z,100.00
2022-10-05T06:15:35.547Z,100.00
2022-10-05T06:18:41.135Z,100.00
2022-10-05T06:22:10.600Z,100.00
2022-10-05T06:25:55.010Z,100.00
2022-10-05T06:29:21.562Z,100.00
2022-10-05T06:33:07.708Z,100.00
2022-10-05T06:36:43.772Z,100.00
2022-10-05T06:40:17.605Z,100.00
2022-10-05T06:43:46.586Z,100.00
2022-10-05T06:47:20.553Z,100.00
2022-10-05T06:50:59.555Z,100.00
2022-10-05T06:54:38.552Z,100.00
2022-10-05T06:58:25.571Z,100.00
2022-10-05T07:01:51.808Z,100.00
2022-10-05T07:05:25.742Z,100.00
2022-10-05T07:08:46.569Z,100.00
2022-10-05T07:12:07.880Z,100.00
2022-10-05T07:15:32.532Z,100.00
2022-10-05T07:18:50.554Z,100.00
2022-10-05T07:22:28.272Z,100.00
2022-10-05T07:25:57.558Z,99.51
2022-10-05T07:29:18.581Z,99.33
2022-10-05T07:32:46.603Z,100.00
2022-10-05T07:36:16.567Z,96.49
2022-10-05T07:39:58.336Z,93.82
2022-10-05T07:43:10.571Z,91.41
2022-10-05T07:46:43.632Z,89.38
2022-10-05T07:50:05.571Z,88.18
2022-10-05T07:53:41.606Z,86.57
2022-10-05T07:57:05.558Z,84.73
2022-10-05T08:00:23.446Z,84.41
2022-10-05T08:03:49.560Z,83.72
2022-10-05T08:07:09.648Z,81.15
2022-10-05T08:10:18.881Z,79.59
2022-10-05T08:13:44.543Z,77.88
2022-10-05T08:17:03.756Z,77.04
2022-10-05T08:20:21.095Z,76.10
2022-10-05T08:23:48.573Z,76.40
2022-10-05T08:27:10.569Z,75.41
2022-10-05T08:30:15.616Z,73.60
2022-10-05T08:37:36.552Z,71.88
2022-10-05T08:40:51.194Z,71.71
2022-10-05T08:44:34.597Z,71.20
2022-10-05T08:48:20.890Z,71.08
2022-10-05T08:52:06.547Z,69.64
2022-10-05T08:55:35.563Z,69.60
2022-10-05T08:59:11.620Z,68.20
2022-10-05T09:03:07.566Z,68.75
2022-10-05T09:06:59.564Z,71.11
2022-10-05T09:10:24.560Z,68.74
2022-10-05T09:14:10.618Z,66.26
2022-10-05T09:18:06.963Z,65.60
2022-10-05T09:21:24.579Z,64.56
2022-10-05T09:25:01.572Z,65.05
2022-10-05T09:28:27.843Z,66.44
2022-10-05T09:31:57.553Z,66.52
2022-10-05T09:35:21.557Z,67.16
2022-10-05T09:38:55.588Z,65.78
2022-10-05T09:42:16.214Z,64.15
2022-10-05T09:45:42.568Z,64.04
2022-10-05T09:49:24.577Z,64.66
2022-10-05T09:52:48.231Z,62.33
2022-10-05T09:56:21.750Z,62.84
2022-10-05T09:59:46.578Z,65.65
2022-10-05T10:03:26.179Z,65.79
2022-10-05T10:06:55.569Z,64.77
2022-10-05T10:10:46.566Z,65.62
2022-10-05T10:14:00.876Z,66.24
2022-10-05T10:17:23.599Z,63.95
2022-10-05T10:20:48.570Z,64.79
2022-10-05T10:24:12.553Z,63.43
2022-10-05T10:27:52.343Z,62.38
2022-10-05T10:31:26.090Z,62.35
2022-10-05T10:34:54.684Z,62.46
2022-10-05T10:38:21.576Z,64.55
2022-10-05T10:42:02.578Z,64.54
2022-10-05T10:45:14.105Z,65.55
2022-10-05T10:48:57.567Z,66.63
2022-10-05T10:52:42.585Z,67.10
2022-10-05T10:56:12.563Z,66.22
2022-10-05T10:59:36.495Z,66.67
2022-10-05T11:03:06.664Z,64.35
2022-10-05T11:06:37.012Z,63.98
2022-10-05T11:09:54.561Z,64.84
2022-10-05T11:13:17.557Z,63.67
2022-10-05T11:16:31.991Z,65.44
2022-10-05T11:20:15.660Z,66.69
2022-10-05T11:23:38.589Z,65.52
2022-10-05T11:27:33.139Z,67.19
2022-10-05T11:30:56.619Z,67.53
2022-10-05T11:34:35.561Z,66.58
2022-10-05T11:38:02.494Z,67.42
2022-10-05T11:41:52.802Z,66.49
2022-10-05T11:45:49.600Z,67.40
2022-10-05T11:48:59.073Z,68.38
2022-10-05T11:52:29.581Z,67.10
2022-10-05T11:55:40.626Z,67.94
2022-10-05T11:59:18.254Z,68.69
2022-10-05T12:02:45.666Z,67.71
2022-10-05T12:06:15.601Z,68.54
2022-10-05T12:09:37.421Z,68.83
2022-10-05T12:12:58.725Z,68.00
2022-10-05T12:16:32.762Z,68.18
2022-10-05T12:19:58.573Z,68.59
2022-10-05T12:23:29.594Z,69.31
2022-10-05T12:26:48.660Z,68.96
2022-10-05T12:30:21.589Z,68.85
2022-10-05T12:34:02.792Z,68.26
2022-10-05T12:37:52.581Z,68.58
2022-10-05T12:41:24.593Z,67.54
2022-10-05T12:45:11.884Z,66.86
2022-10-05T12:48:45.609Z,66.81
2022-10-05T12:52:10.591Z,66.94
2022-10-05T12:55:38.597Z,67.44
2022-10-05T12:59:00.886Z,66.58
2022-10-05T13:02:28.621Z,65.23
2022-10-05T13:05:34.113Z,63.45
2022-10-05T13:09:02.590Z,66.00
2022-10-05T13:12:48.595Z,64.79
2022-10-05T13:16:21.647Z,65.07
2022-10-05T13:19:45.977Z,66.78
2022-10-05T13:23:19.583Z,66.67
2022-10-05T13:26:50.608Z,67.34
2022-10-05T13:30:14.301Z,66.21
2022-10-05T13:33:50.591Z,65.71
2022-10-05T13:37:16.078Z,65.97
2022-10-05T13:40:39.624Z,66.31
2022-10-05T13:44:03.608Z,64.85
2022-10-05T13:47:50.553Z,65.87
2022-10-05T13:51:18.580Z,66.66
2022-10-05T13:54:44.613Z,65.70
2022-10-05T13:58:02.100Z,66.70
2022-10-05T14:01:50.647Z,67.29
2022-10-05T14:05:06.587Z,66.84
2022-10-05T14:08:23.605Z,65.78
2022-10-05T14:11:38.585Z,65.95
2022-10-05T14:15:01.638Z,68.13
2022-10-05T14:18:25.016Z,66.77
2022-10-05T14:21:37.792Z,67.86
2022-10-05T14:25:02.594Z,70.51
2022-10-05T14:28:23.294Z,69.36
2022-10-05T14:31:43.681Z,70.86
2022-10-05T14:35:00.606Z,67.54
2022-10-05T14:38:28.748Z,67.86
2022-10-05T14:41:52.617Z,68.11
2022-10-05T14:45:15.826Z,67.21
2022-10-05T14:48:32.609Z,68.45
2022-10-05T14:51:41.613Z,67.46
2022-10-05T14:55:04.439Z,68.49
2022-10-05T14:58:41.662Z,68.65
2022-10-05T15:02:18.835Z,68.80
2022-10-05T15:05:35.283Z,68.83
2022-10-05T15:08:58.603Z,70.00
2022-10-05T15:12:07.421Z,70.41
2022-10-05T15:15:50.645Z,69.57
2022-10-05T15:19:38.604Z,71.14
2022-10-05T15:22:59.178Z,70.43
2022-10-05T15:26:36.636Z,69.98
2022-10-05T15:30:07.602Z,71.60
2022-10-05T15:33:34.165Z,71.46
2022-10-05T15:36:42.590Z,72.48
2022-10-05T15:40:12.132Z,74.16
2022-10-05T15:43:29.622Z,75.28
2022-10-05T15:46:50.617Z,75.57
2022-10-05T15:50:12.653Z,76.09
2022-10-05T15:53:55.611Z,77.45
2022-10-05T15:57:11.664Z,75.65
2022-10-05T16:00:28.608Z,76.33
2022-10-05T16:03:56.633Z,77.01
2022-10-05T16:07:23.624Z,77.95
2022-10-05T16:10:37.031Z,77.97
2022-10-05T16:14:01.617Z,78.17
2022-10-05T16:17:27.638Z,79.92
2022-10-05T16:21:13.649Z,80.86
2022-10-05T16:24:50.237Z,80.73
2022-10-05T16:28:31.693Z,81.05
2022-10-05T16:32:25.625Z,81.25
2022-10-05T16:36:08.638Z,82.96
2022-10-05T16:39:48.580Z,83.25
2022-10-05T16:43:22.646Z,84.19
2022-10-05T16:46:52.560Z,84.34
2022-10-05T16:50:13.652Z,84.91
2022-10-05T16:53:34.618Z,84.55
2022-10-05T16:56:58.650Z,84.84
2022-10-05T17:00:19.173Z,84.48
2022-10-05T17:03:38.633Z,84.14
2022-10-05T17:07:14.801Z,83.80
2022-10-05T17:10:37.645Z,84.91
2022-10-05T17:14:04.605Z,85.33
2022-10-05T17:18:02.642Z,85.36
2022-10-05T17:21:24.632Z,85.50
2022-10-05T17:24:42.664Z,85.75
2022-10-05T17:27:57.941Z,86.49
2022-10-05T17:31:27.689Z,86.99
2022-10-05T17:34:45.633Z,86.83
2022-10-05T17:38:10.973Z,87.08
2022-10-05T17:41:34.633Z,87.13
2022-10-05T17:44:43.351Z,87.40
2022-10-05T17:48:15.666Z,87.65
2022-10-05T17:51:36.622Z,87.93
2022-10-05T17:54:50.632Z,88.05
2022-10-05T17:58:20.579Z,88.45
2022-10-05T18:01:47.666Z,88.63
2022-10-05T18:05:22.627Z,88.95
2022-10-05T18:08:31.802Z,88.87
2022-10-05T18:11:50.647Z,89.51
2022-10-05T18:15:11.945Z,89.20
2022-10-05T18:18:33.756Z,89.21
2022-10-05T18:22:06.827Z,89.02
2022-10-05T18:25:30.686Z,92.22
2022-10-05T18:28:38.680Z,90.98
2022-10-05T18:32:04.653Z,89.75
2022-10-05T18:35:26.301Z,89.60
2022-10-05T18:38:52.982Z,90.93
2022-10-05T18:42:19.684Z,89.60
2022-10-05T18:45:28.988Z,89.77
2022-10-05T18:49:04.009Z,89.75
2022-10-05T18:52:19.190Z,90.99
2022-10-05T18:55:42.686Z,91.17
2022-10-05T18:59:11.046Z,91.33
2022-10-05T19:02:53.129Z,91.29
2022-10-05T19:06:33.603Z,90.32
2022-10-05T19:10:03.398Z,92.05
2022-10-05T19:13:49.687Z,91.60
2022-10-05T19:17:36.001Z,91.41
2022-10-05T19:21:02.370Z,91.46
2022-10-05T19:24:55.054Z,91.85
2022-10-05T19:28:26.560Z,92.43
2022-10-05T19:32:03.671Z,93.03
2022-10-05T19:35:39.639Z,92.93
2022-10-05T19:39:02.848Z,93.51
2022-10-05T19:42:26.655Z,93.02
2022-10-05T19:45:36.834Z,93.33
2022-10-05T19:48:52.686Z,93.60
2022-10-05T19:52:02.642Z,94.37
2022-10-05T19:55:15.002Z,94.00
2022-10-05T19:58:31.361Z,94.16
2022-10-05T20:01:33.552Z,94.75
2022-10-05T20:04:51.977Z,94.79
2022-10-05T20:07:53.955Z,95.31
2022-10-05T20:11:31.649Z,94.59
2022-10-05T20:14:46.643Z,96.51
2022-10-05T20:17:48.446Z,96.97
2022-10-05T20:21:03.620Z,96.99
2022-10-05T20:24:20.668Z,96.61
2022-10-05T20:27:50.005Z,96.88
2022-10-05T20:30:58.742Z,97.41
2022-10-05T20:34:07.159Z,97.81
2022-10-05T20:37:24.664Z,98.05
2022-10-05T20:40:39.644Z,98.18
2022-10-05T20:43:41.410Z,98.32
2022-10-05T20:46:56.719Z,98.25
2022-10-05T20:50:05.665Z,98.88
2022-10-05T20:53:14.235Z,99.18
2022-10-05T20:56:29.659Z,99.46
2022-10-05T20:59:31.718Z,99.52
2022-10-05T21:02:46.679Z,99.92
2022-10-05T21:05:55.126Z,99.77
2022-10-05T21:09:03.654Z,100.00
2022-10-05T21:12:19.634Z,100.00
2022-10-05T21:15:28.269Z,100.00
2022-10-05T21:18:42.658Z,100.00
2022-10-05T21:21:57.621Z,100.00
2022-10-05T21:25:05.669Z,100.00
2022-10-05T21:28:14.236Z,100.00
2022-10-05T21:31:28.703Z,100.00
2022-10-05T21:34:47.627Z,100.00
2022-10-05T21:38:02.652Z,100.00
2022-10-05T21:41:17.621Z,100.00
2022-10-05T21:44:19.354Z,100.00
2022-10-05T21:47:33.629Z,100.00
2022-10-05T21:50:42.666Z,100.00
2022-10-05T21:53:56.898Z,100.00
2022-10-05T21:57:05.637Z,100.00
2022-10-05T22:00:23.625Z,100.00
2022-10-05T22:03:25.476Z,100.00
2022-10-05T22:06:41.626Z,100.00
2022-10-05T22:09:51.472Z,100.00
2022-10-05T22:12:59.626Z,100.00
2022-10-05T22:16:08.222Z,100.00
2022-10-05T22:19:22.638Z,100.00
2022-10-05T22:22:37.644Z,100.00
2022-10-05T22:25:39.672Z,100.00
2022-10-05T22:28:57.665Z,100.00
2022-10-05T22:32:06.140Z,100.00
2022-10-05T22:35:27.660Z,100.00
2022-10-05T22:38:36.538Z,100.00
2022-10-05T22:41:44.681Z,100.00
2022-10-05T22:44:53.137Z,100.00
2022-10-05T22:48:01.656Z,100.00
2022-10-05T22:51:17.648Z,100.00
2022-10-05T22:54:29.577Z,100.00
2022-10-05T22:57:49.671Z,100.00
2022-10-05T23:01:06.339Z,100.00
2022-10-05T23:04:14.638Z,100.00
2022-10-05T23:07:29.672Z,100.00
2022-10-05T23:10:44.631Z,100.00
2022-10-05T23:13:52.650Z,100.00
2022-10-05T23:17:07.704Z,100.00
2022-10-05T23:20:09.979Z,100.00
2022-10-05T23:23:24.677Z,100.00
2022-10-05T23:26:26.822Z,100.00
2022-10-05T23:29:41.644Z,100.00
2022-10-05T23:32:50.268Z,100.00
2022-10-05T23:36:05.651Z,100.00
2022-10-05T23:39:20.675Z,100.00
2022-10-05T23:42:29.218Z,100.00
2022-10-05T23:45:37.675Z,100.00
2022-10-05T23:48:46.131Z,100.00
2022-10-05T23:52:00.654Z,100.00
2022-10-05T23:55:04.658Z,100.00
2022-10-05T23:58:19.661Z,100.00
